createdAt,value
2022-11-05T00:01:23.326Z,61.75
2022-11-05T00:04:13.503Z,63.67
2022-11-05T00:07:01.960Z,60.33
2022-11-05T00:09:33.426Z,63.67
2022-11-05T00:12:31.569Z,62.33
2022-11-05T00:15:19.747Z,64.00
2022-11-05T00:17:49.208Z,63.33
2022-11-05T00:20:19.065Z,62.00
2022-11-05T00:23:07.447Z,64.00
2022-11-05T00:25:36.259Z,59.00
2022-11-05T00:28:05.119Z,65.00
2022-11-05T00:30:33.813Z,63.33
2022-11-05T00:33:03.687Z,67.25
2022-11-05T00:35:33.108Z,71.50
2022-11-05T00:38:02.492Z,66.50
2022-11-05T00:40:31.173Z,74.00
2022-11-05T00:43:18.614Z,72.00
2022-11-05T00:45:49.839Z,67.33
2022-11-05T00:48:37.875Z,75.33
2022-11-05T00:51:08.400Z,73.67
2022-11-05T00:53:37.245Z,72.00
2022-11-05T00:56:06.141Z,71.67
2022-11-05T00:58:34.853Z,73.00
2022-11-05T01:01:06.504Z,80.00
2022-11-05T01:03:38.647Z,75.33
2022-11-05T01:06:11.909Z,70.00
2022-11-05T01:08:44.373Z,75.25
2022-11-05T01:11:37.376Z,73.75
2022-11-05T01:14:12.285Z,73.75
2022-11-05T01:16:42.183Z,72.00
2022-11-05T01:19:12.224Z,71.00
2022-11-05T01:21:41.759Z,72.00
2022-11-05T01:24:11.637Z,72.00
2022-11-05T01:26:40.261Z,70.33
2022-11-05T01:29:11.174Z,72.00
2022-11-05T01:31:39.983Z,70.00
2022-11-05T01:34:08.595Z,72.33
2022-11-05T01:36:37.256Z,69.67
2022-11-05T01:39:06.933Z,67.67
2022-11-05T01:41:36.383Z,67.50
2022-11-05T01:44:05.484Z,68.33
2022-11-05T01:46:41.346Z,67.67
2022-11-05T01:49:31.705Z,69.33
2022-11-05T01:52:05.339Z,67.67
2022-11-05T01:54:35.876Z,62.67
2022-11-05T01:57:10.862Z,64.67
2022-11-05T01:59:46.328Z,64.67
2022-11-05T02:02:15.598Z,67.67
2022-11-05T02:04:55.131Z,62.67
2022-11-05T02:07:28.069Z,62.67
2022-11-05T02:10:11.240Z,61.00
2022-11-05T02:12:46.031Z,53.67
2022-11-05T02:15:45.892Z,59.67
2022-11-05T02:18:46.387Z,51.67
2022-11-05T02:21:26.019Z,51.00
2022-11-05T02:24:43.442Z,54.00
2022-11-05T02:28:36.694Z,54.33
2022-11-05T02:31:41.119Z,48.33
2022-11-05T02:34:37.932Z,39.00
2022-11-05T02:37:40.366Z,56.00
2022-11-05T02:40:42.081Z,52.33
2022-11-05T02:43:35.413Z,52.00
2022-11-05T02:46:30.850Z,44.50
2022-11-05T02:49:25.590Z,45.00
2022-11-05T02:51:59.625Z,43.50
2022-11-05T02:54:44.065Z,47.67
2022-11-05T02:57:12.740Z,49.33
2022-11-05T02:59:41.334Z,42.00
2022-11-05T03:02:10.968Z,32.00
2022-11-05T03:04:39.921Z,29.67
2022-11-05T03:07:42.168Z,36.67
2022-11-05T03:10:46.324Z,31.00
2022-11-05T03:14:00.921Z,32.33
2022-11-05T03:16:36.663Z,36.67
2022-11-05T03:19:38.597Z,28.00
2022-11-05T03:22:28.676Z,25.00
2022-11-05T03:25:08.861Z,17.33
2022-11-05T03:27:42.267Z,18.00
2022-11-05T03:30:15.120Z,13.00
2022-11-05T03:32:53.760Z,15.33
2022-11-05T03:35:34.482Z,15.00
2022-11-05T03:38:31.540Z,14.33
2022-11-05T03:41:06.606Z,13.67
2022-11-05T03:43:42.121Z,14.67
2022-11-05T03:46:45.624Z,12.50
2022-11-05T03:49:25.614Z,12.00
2022-11-05T03:52:14.834Z,12.50
2022-11-05T03:54:43.796Z,13.33
2022-11-05T03:57:33.008Z,13.33
2022-11-05T04:00:00.917Z,11.50
2022-11-05T04:02:31.953Z,12.80
2022-11-05T04:05:01.685Z,10.00
2022-11-05T04:07:59.362Z,16.33
2022-11-05T04:11:05.145Z,13.00
2022-11-05T04:13:34.144Z,14.50
2022-11-05T04:16:20.514Z,13.00
2022-11-05T04:18:48.472Z,13.00
2022-11-05T04:21:34.703Z,11.00
2022-11-05T04:24:08.419Z,11.00
2022-11-05T04:26:43.908Z,11.00
2022-11-05T04:29:32.312Z,8.00
2022-11-05T04:32:00.077Z,11.00
2022-11-05T04:34:27.876Z,11.00
2022-11-05T04:36:55.540Z,9.00
2022-11-05T04:39:23.318Z,8.00
2022-11-05T04:41:52.802Z,9.00
2022-11-05T04:44:20.435Z,5.50
2022-11-05T04:46:48.086Z,7.00
2022-11-05T04:49:15.667Z,8.00
2022-11-05T04:51:43.603Z,11.00
2022-11-05T04:54:11.305Z,7.50
2022-11-05T04:56:38.986Z,10.00
2022-11-05T04:59:10.694Z,10.43
2022-11-05T05:01:40.331Z,10.80
2022-11-05T05:04:09.976Z,11.00
2022-11-05T05:06:38.578Z,10.50
2022-11-05T05:09:06.300Z,12.00
2022-11-05T05:11:33.995Z,13.00
2022-11-05T05:14:02.530Z,12.00
2022-11-05T05:16:30.222Z,15.00
2022-11-05T05:18:59.723Z,10.20
2022-11-05T05:21:40.668Z,19.33
2022-11-05T05:24:18.944Z,14.00
2022-11-05T05:26:51.262Z,18.00
2022-11-05T05:29:19.807Z,18.50
2022-11-05T05:31:48.312Z,15.00
2022-11-05T05:34:16.880Z,14.00
2022-11-05T05:36:46.428Z,10.20
2022-11-05T05:39:15.082Z,22.50
2022-11-05T05:41:43.545Z,16.67
2022-11-05T05:44:12.193Z,18.33
2022-11-05T05:46:39.941Z,11.50
2022-11-05T05:49:12.655Z,11.67
2022-11-05T05:51:41.079Z,14.00
2022-11-05T05:54:10.663Z,16.50
2022-11-05T05:56:40.192Z,13.40
2022-11-05T05:59:07.944Z,13.00
2022-11-05T06:01:38.301Z,9.80
2022-11-05T06:04:07.012Z,10.67
2022-11-05T06:06:34.681Z,12.00
2022-11-05T06:09:02.609Z,10.50
2022-11-05T06:11:30.452Z,12.00
2022-11-05T06:13:58.368Z,10.00
2022-11-05T06:16:27.886Z,11.67
2022-11-05T06:18:57.433Z,11.60
2022-11-05T06:21:25.206Z,12.00
2022-11-05T06:23:52.897Z,14.00
2022-11-05T06:26:21.561Z,14.50
2022-11-05T06:28:49.356Z,9.00
2022-11-05T06:31:17.054Z,12.00
2022-11-05T06:33:45.654Z,13.67
2022-11-05T06:36:18.493Z,15.00
2022-11-05T06:38:47.753Z,15.33
2022-11-05T06:41:18.647Z,19.67
2022-11-05T06:43:48.241Z,34.67
2022-11-05T06:49:36.871Z,21.00
2022-11-05T06:52:04.887Z,21.00
2022-11-05T06:54:33.566Z,23.67
2022-11-05T06:57:02.235Z,21.00
2022-11-05T06:59:31.249Z,25.00
2022-11-05T07:02:00.225Z,19.00
2022-11-05T07:04:28.962Z,27.00
2022-11-05T07:07:03.408Z,36.67
2022-11-05T07:09:32.143Z,21.33
2022-11-05T07:12:00.860Z,21.00
2022-11-05T07:14:28.682Z,21.00
2022-11-05T07:16:58.523Z,19.50
2022-11-05T07:19:26.395Z,19.00
2022-11-05T07:21:55.137Z,20.00
2022-11-05T07:24:23.886Z,17.00
2022-11-05T07:26:52.881Z,20.00
2022-11-05T07:29:21.628Z,25.00
2022-11-05T07:31:50.314Z,23.50
2022-11-05T07:34:18.257Z,15.00
2022-11-05T07:36:46.964Z,28.00
2022-11-05T07:39:15.604Z,14.67
2022-11-05T07:41:44.302Z,16.00
2022-11-05T07:44:14.556Z,19.50
2022-11-05T07:46:43.297Z,19.00
2022-11-05T07:49:12.071Z,14.33
2022-11-05T07:51:42.916Z,19.00
2022-11-05T07:54:11.908Z,21.00
2022-11-05T07:56:40.645Z,18.00
2022-11-05T07:59:09.278Z,25.33
2022-11-05T08:01:37.387Z,17.00
2022-11-05T08:04:06.104Z,16.67
2022-11-05T08:06:33.886Z,14.50
2022-11-05T08:09:02.624Z,19.67
2022-11-05T08:11:30.420Z,18.50
2022-11-05T08:13:58.219Z,16.50
2022-11-05T08:16:27.328Z,23.50
2022-11-05T08:19:01.276Z,17.67
2022-11-05T08:21:29.903Z,20.50
2022-11-05T08:23:58.561Z,26.00
2022-11-05T08:26:28.072Z,28.67
2022-11-05T08:28:56.794Z,25.00
2022-11-05T08:31:25.457Z,23.00
2022-11-05T08:33:59.711Z,15.00
2022-11-05T08:36:30.039Z,20.00
2022-11-05T08:38:57.981Z,21.00
2022-11-05T08:41:26.756Z,16.33
2022-11-05T08:43:58.728Z,23.00
2022-11-05T08:46:27.479Z,19.50
2022-11-05T08:48:56.172Z,31.00
2022-11-05T08:51:24.922Z,24.00
2022-11-05T08:53:53.600Z,26.00
2022-11-05T08:56:23.431Z,23.50
2022-11-05T08:58:52.026Z,24.00
2022-11-05T09:01:20.027Z,22.50
2022-11-05T09:03:52.230Z,26.50
2022-11-05T09:06:20.927Z,27.00
2022-11-05T09:08:48.816Z,20.00
2022-11-05T09:11:18.374Z,26.00
2022-11-05T09:13:47.111Z,31.00
2022-11-05T09:16:25.893Z,33.33
2022-11-05T09:18:56.185Z,29.00
2022-11-05T09:21:25.556Z,39.67
2022-11-05T09:23:54.298Z,42.33
2022-11-05T09:26:23.746Z,30.00
2022-11-05T09:28:52.401Z,21.33
2022-11-05T09:31:22.099Z,20.00
2022-11-05T09:33:50.800Z,16.67
2022-11-05T09:36:19.428Z,50.33
2022-11-05T09:38:47.225Z,25.50
2022-11-05T09:41:37.511Z,15.50
2022-11-05T09:44:26.567Z,17.50
2022-11-05T09:47:02.548Z,15.00
2022-11-05T09:49:47.027Z,17.50
2022-11-05T09:52:31.513Z,12.33
2022-11-05T09:55:02.383Z,14.67
2022-11-05T09:57:50.672Z,11.50
2022-11-05T10:00:19.740Z,20.00
2022-11-05T10:03:05.628Z,20.00
2022-11-05T10:05:35.719Z,17.00
2022-11-05T10:08:22.566Z,15.00
2022-11-05T10:10:57.030Z,14.00
2022-11-05T10:13:55.473Z,12.67
2022-11-05T10:16:46.457Z,15.00
2022-11-05T10:19:26.018Z,18.00
2022-11-05T10:22:17.159Z,24.00
2022-11-05T10:24:51.254Z,11.00
2022-11-05T10:27:39.076Z,53.50
2022-11-05T10:30:07.747Z,7.00
2022-11-05T10:32:41.646Z,8.00
2022-11-05T10:35:18.979Z,8.00
2022-11-05T10:37:47.302Z,10.50
2022-11-05T10:40:52.211Z,9.50
2022-11-05T10:43:41.063Z,12.00
2022-11-05T10:46:29.921Z,9.33
2022-11-05T10:49:53.596Z,9.00
2022-11-05T10:52:27.152Z,10.00
2022-11-05T10:55:02.180Z,6.00
2022-11-05T10:57:31.820Z,9.00
2022-11-05T11:00:31.926Z,9.00
2022-11-05T11:03:04.355Z,12.50
2022-11-05T11:05:41.422Z,10.00
2022-11-05T11:08:12.093Z,10.00
2022-11-05T11:10:52.938Z,13.00
2022-11-05T11:13:29.440Z,8.00
2022-11-05T11:16:21.229Z,6.71
2022-11-05T11:19:01.297Z,9.57
2022-11-05T11:21:32.550Z,8.00
2022-11-05T11:24:07.243Z,14.00
2022-11-05T11:26:40.097Z,11.80
2022-11-05T11:29:26.998Z,14.00
2022-11-05T11:32:03.330Z,10.00
2022-11-05T11:34:36.618Z,6.00
2022-11-05T11:37:33.267Z,9.60
2022-11-05T11:40:32.116Z,9.71
2022-11-05T11:43:21.601Z,16.00
2022-11-05T11:45:54.377Z,8.00
2022-11-05T11:48:35.777Z,7.00
2022-11-05T11:51:49.854Z,9.29
2022-11-05T11:54:25.866Z,11.80
2022-11-05T11:56:57.284Z,13.33
2022-11-05T11:59:53.946Z,9.50
2022-11-05T12:02:55.939Z,7.00
2022-11-05T12:05:46.301Z,10.50
2022-11-05T12:09:27.845Z,7.50
2022-11-05T12:12:09.410Z,8.00
2022-11-05T12:15:25.216Z,10.00
2022-11-05T12:18:43.667Z,8.00
2022-11-05T12:22:05.872Z,7.00
2022-11-05T12:25:04.914Z,9.00
2022-11-05T12:28:15.239Z,6.00
2022-11-05T12:31:27.683Z,9.00
2022-11-05T12:34:51.529Z,9.50
2022-11-05T12:38:07.250Z,11.00
2022-11-05T12:41:15.638Z,10.20
2022-11-05T12:44:31.722Z,8.00
2022-11-05T12:47:38.763Z,15.20
2022-11-05T12:50:32.160Z,38.33
2022-11-05T12:53:39.327Z,30.00
2022-11-05T12:56:31.563Z,35.67
2022-11-05T12:59:42.171Z,20.00
2022-11-05T13:02:31.080Z,20.00
2022-11-05T13:05:43.245Z,43.33
2022-11-05T13:08:23.672Z,11.67
2022-11-05T13:11:11.629Z,25.00
2022-11-05T13:13:48.077Z,10.33
2022-11-05T13:16:43.699Z,6.50
2022-11-05T13:19:38.222Z,6.50
2022-11-05T13:22:41.790Z,14.00
2022-11-05T13:25:27.512Z,15.33
2022-11-05T13:28:24.451Z,23.50
2022-11-05T13:31:01.678Z,20.67
2022-11-05T13:33:42.804Z,17.50
2022-11-05T13:36:42.991Z,12.00
2022-11-05T13:40:02.261Z,10.00
2022-11-05T13:43:14.829Z,14.00
2022-11-05T13:46:11.879Z,18.00
2022-11-05T13:49:10.459Z,14.33
2022-11-05T13:52:02.851Z,16.00
2022-11-05T13:55:30.748Z,28.33
2022-11-05T13:58:14.344Z,27.33
2022-11-05T14:01:15.674Z,17.50
2022-11-05T14:03:55.039Z,19.00
2022-11-05T14:06:35.351Z,30.67
2022-11-05T14:09:12.287Z,16.00
2022-11-05T14:11:56.583Z,10.00
2022-11-05T14:14:32.734Z,18.50
2022-11-05T14:17:09.606Z,17.00
2022-11-05T14:24:02.941Z,9.00
2022-11-05T14:26:33.394Z,29.00
2022-11-05T14:29:04.929Z,22.67
2022-11-05T14:32:07.705Z,18.00
2022-11-05T14:35:17.744Z,28.00
2022-11-05T14:37:59.440Z,32.67
2022-11-05T14:40:42.534Z,14.50
2022-11-05T14:43:26.239Z,23.50
2022-11-05T14:46:07.063Z,79.00
2022-11-05T14:49:05.126Z,80.25
2022-11-05T14:51:47.463Z,23.00
2022-11-05T14:54:53.920Z,21.00
2022-11-05T14:57:43.453Z,19.50
2022-11-05T15:00:30.270Z,24.00
2022-11-05T15:03:45.893Z,52.33
2022-11-05T15:06:33.437Z,25.00
2022-11-05T15:09:33.643Z,54.67
2022-11-05T15:12:19.157Z,42.67
2022-11-05T15:14:58.139Z,52.33
2022-11-05T15:17:42.900Z,56.00
2022-11-05T15:20:23.930Z,27.67
2022-11-05T15:23:04.694Z,44.67
2022-11-05T15:26:10.196Z,65.33
2022-11-05T15:28:58.562Z,19.50
2022-11-05T15:31:43.692Z,50.67
2022-11-05T15:34:32.893Z,28.33
2022-11-05T15:37:26.277Z,81.00
2022-11-05T15:39:57.569Z,19.00
2022-11-05T15:42:28.349Z,16.50
2022-11-05T15:45:01.158Z,12.67
2022-11-05T15:47:35.024Z,27.67
2022-11-05T15:50:16.931Z,28.00
2022-11-05T15:53:04.879Z,11.50
2022-11-05T15:55:54.150Z,32.00
2022-11-05T15:58:23.008Z,33.33
2022-11-05T16:00:51.593Z,21.67
2022-11-05T16:03:38.826Z,15.00
2022-11-05T16:06:10.712Z,74.00
2022-11-05T16:08:39.399Z,23.50
2022-11-05T16:11:08.942Z,50.33
2022-11-05T16:13:43.047Z,37.33
2022-11-05T16:16:14.545Z,20.00
2022-11-05T16:18:45.151Z,12.00
2022-11-05T16:21:23.298Z,56.00
2022-11-05T16:23:57.765Z,49.67
2022-11-05T16:27:02.182Z,57.33
2022-11-05T16:30:02.673Z,52.00
2022-11-05T16:32:32.067Z,42.00
2022-11-05T16:35:06.083Z,66.00
2022-11-05T16:37:46.321Z,71.33
2022-11-05T16:40:25.844Z,36.67
2022-11-05T16:42:55.944Z,50.67
2022-11-05T16:45:26.175Z,59.33
2022-11-05T16:47:55.647Z,46.33
2022-11-05T16:50:32.793Z,53.33
2022-11-05T16:53:01.427Z,45.00
2022-11-05T16:55:33.647Z,59.67
2022-11-05T16:58:04.107Z,26.67
2022-11-05T17:00:34.105Z,57.67
2022-11-05T17:03:04.284Z,55.33
2022-11-05T17:05:33.709Z,49.33
2022-11-05T17:08:03.611Z,31.33
2022-11-05T17:10:32.343Z,52.00
2022-11-05T17:13:01.218Z,32.00
2022-11-05T17:15:36.779Z,26.67
2022-11-05T17:18:07.163Z,59.67
2022-11-05T17:20:45.429Z,44.67
2022-11-05T17:23:26.866Z,30.33
2022-11-05T17:26:03.692Z,31.00
2022-11-05T17:28:33.459Z,46.50
2022-11-05T17:31:07.566Z,32.33
2022-11-05T17:33:37.108Z,37.67
2022-11-05T17:36:14.218Z,43.00
2022-11-05T17:38:43.588Z,33.00
2022-11-05T17:41:20.542Z,25.33
2022-11-05T17:43:53.927Z,21.50
2022-11-05T17:46:23.681Z,17.00
2022-11-05T17:48:52.320Z,31.33
2022-11-05T17:51:21.628Z,20.50
2022-11-05T17:53:50.350Z,25.50
2022-11-05T17:56:32.550Z,10.00
2022-11-05T17:59:04.204Z,16.00
2022-11-05T18:01:37.447Z,25.50
2022-11-05T18:04:08.930Z,19.50
2022-11-05T18:06:40.349Z,15.00
2022-11-05T18:09:11.578Z,13.00
2022-11-05T18:11:41.311Z,14.67
2022-11-05T18:14:10.543Z,20.50
2022-11-05T18:16:39.254Z,16.33
2022-11-05T18:19:08.905Z,28.00
2022-11-05T18:21:37.464Z,16.00
2022-11-05T18:24:06.864Z,16.50
2022-11-05T18:26:35.563Z,12.00
2022-11-05T18:29:06.211Z,24.00
2022-11-05T18:31:34.935Z,19.00
2022-11-05T18:34:03.737Z,44.33
2022-11-05T18:36:34.100Z,43.67
2022-11-05T18:39:05.518Z,31.00
2022-11-05T18:41:35.207Z,42.33
2022-11-05T18:44:05.221Z,52.00
2022-11-05T18:49:23.493Z,36.33
2022-11-05T18:51:52.940Z,46.00
2022-11-05T18:54:21.544Z,30.33
2022-11-05T18:56:50.202Z,46.00
2022-11-05T18:59:36.793Z,74.50
2022-11-05T19:02:10.754Z,30.67
2022-11-05T19:04:50.543Z,14.00
2022-11-05T19:07:29.273Z,24.33
2022-11-05T19:09:57.840Z,20.50
2022-11-05T19:12:26.504Z,12.67
2022-11-05T19:15:02.119Z,9.33
2022-11-05T19:17:32.877Z,15.00
2022-11-05T19:20:02.604Z,26.00
2022-11-05T19:22:31.210Z,21.33
2022-11-05T19:24:59.665Z,15.33
2022-11-05T19:27:28.248Z,28.33
2022-11-05T19:29:56.854Z,13.67
2022-11-05T19:32:25.700Z,35.50
2022-11-05T19:34:53.471Z,12.00
2022-11-05T19:37:21.895Z,13.33
2022-11-05T19:39:49.542Z,6.00
2022-11-05T19:42:17.271Z,5.00
2022-11-05T19:44:48.449Z,9.86
2022-11-05T19:47:17.363Z,10.67
2022-11-05T19:49:46.860Z,19.20
2022-11-05T19:52:14.541Z,9.00
2022-11-05T19:54:42.234Z,7.00
2022-11-05T19:57:12.861Z,8.80
2022-11-05T19:59:41.398Z,22.00
2022-11-05T20:02:15.837Z,6.00
2022-11-05T20:04:45.821Z,10.00
2022-11-05T20:07:14.372Z,14.67
2022-11-05T20:09:42.949Z,18.00
2022-11-05T20:12:10.668Z,15.00
2022-11-05T20:14:39.218Z,18.00
2022-11-05T20:17:08.766Z,104.00
2022-11-05T20:19:38.897Z,6.80
2022-11-05T20:22:06.606Z,7.00
2022-11-05T20:24:34.290Z,8.00
2022-11-05T20:27:01.934Z,9.00
2022-11-05T20:29:35.274Z,5.00
2022-11-05T20:32:04.750Z,6.00
2022-11-05T20:34:35.088Z,6.00
2022-11-05T20:37:03.186Z,8.00
2022-11-05T20:39:30.953Z,7.00
2022-11-05T20:42:00.632Z,9.50
2022-11-05T20:44:28.568Z,8.00
2022-11-05T20:46:56.429Z,7.00
2022-11-05T20:49:27.544Z,7.14
2022-11-05T20:51:55.795Z,5.00
2022-11-05T20:54:24.065Z,6.00
2022-11-05T20:56:52.084Z,7.00
2022-11-05T20:59:19.918Z,7.50
2022-11-05T21:01:52.088Z,12.20
2022-11-05T21:04:21.629Z,5.80
2022-11-05T21:06:49.256Z,9.00
2022-11-05T21:09:20.607Z,7.14
2022-11-05T21:12:07.074Z,8.00
2022-11-05T21:14:34.707Z,6.00
2022-11-05T21:17:02.537Z,3.00
2022-11-05T21:19:33.095Z,8.00
2022-11-05T21:22:00.888Z,8.50
2022-11-05T21:24:28.574Z,3.00
2022-11-05T21:26:59.219Z,45.00
2022-11-05T21:29:27.491Z,17.50
2022-11-05T21:31:56.003Z,3.25
2022-11-05T21:34:23.917Z,4.00
2022-11-05T21:36:51.751Z,3.50
2022-11-05T21:39:19.526Z,4.00
2022-11-05T21:41:47.191Z,4.00
2022-11-05T21:44:15.928Z,3.00
2022-11-05T21:46:46.071Z,3.00
2022-11-05T21:49:14.674Z,2.00
2022-11-05T21:52:00.806Z,4.50
2022-11-05T21:54:47.157Z,3.00
2022-11-05T21:57:36.702Z,3.00
2022-11-05T22:00:09.509Z,5.00
2022-11-05T22:02:38.253Z,3.00
2022-11-05T22:05:07.498Z,2.00
2022-11-05T22:07:39.010Z,7.00
2022-11-05T22:10:15.891Z,5.50
2022-11-05T22:12:45.469Z,3.00
2022-11-05T22:15:13.678Z,3.50
2022-11-05T22:17:46.258Z,4.00
2022-11-05T22:20:15.695Z,3.50
2022-11-05T22:22:44.426Z,4.00
2022-11-05T22:25:13.463Z,5.00
2022-11-05T22:27:44.164Z,22.67
2022-11-05T22:30:13.615Z,7.50
2022-11-05T22:32:41.422Z,4.00
2022-11-05T22:35:09.865Z,5.50
2022-11-05T22:37:37.929Z,4.00
2022-11-05T22:40:06.511Z,15.00
2022-11-05T22:42:34.301Z,2.50
2022-11-05T22:45:03.242Z,70.33
2022-11-05T22:47:31.913Z,69.67
2022-11-05T22:50:00.554Z,20.67
2022-11-05T22:52:28.479Z,3.00
2022-11-05T22:54:57.567Z,2.00
2022-11-05T22:57:25.997Z,1.25
2022-11-05T22:59:53.663Z,2.00
2022-11-05T23:02:21.477Z,4.00
2022-11-05T23:04:51.580Z,2.00
2022-11-05T23:07:37.834Z,2.50
2022-11-05T23:10:24.859Z,3.00
2022-11-05T23:12:55.812Z,1.50
2022-11-05T23:15:42.278Z,3.00
2022-11-05T23:18:29.270Z,23.33
2022-11-05T23:21:19.202Z,5.00
2022-11-05T23:24:05.352Z,10.00
2022-11-05T23:26:51.612Z,11.00
2022-11-05T23:29:27.118Z,11.40
2022-11-05T23:32:13.639Z,3.00
2022-11-05T23:34:44.762Z,6.14
2022-11-05T23:37:30.771Z,5.00
2022-11-05T23:39:58.436Z,4.00
2022-11-05T23:42:44.613Z,6.00
2022-11-05T23:45:31.985Z,2.50
2022-11-05T23:48:18.804Z,4.50
2022-11-05T23:51:11.433Z,6.00
2022-11-05T23:53:41.583Z,4.50
2022-11-05T23:56:16.039Z,7.00
2022-11-05T23:58:43.737Z,3.00
